Adak, AK

12:09 PM HDT on July 23, 2016 (GMT -0900)
Adak | | Change Station

Elev 13 ft 51.88 °N, 176.65 °W | Updated 13 minutes ago

Overcast
Overcast
55 °F
Feels Like 55 °F
N
15
Wind Variable Wind from WSW

Today
High -- | Low -- °F
--% Chance of Precip.
Yesterday
High -- | Low -- °F
Precip. -- in
Pressure 30.35 in
Visibility 10.0 miles
Clouds Mostly Cloudy 3100 ft
Overcast 4000 ft
Dew Point 45 °F
Humidity 67%
Rainfall 0.00 in
Snow Depth Not available.
6:56 AM 10:48 PM
Waning Gibbous, 82% visible
METAR PADK 232056Z AUTO 25013KT 10SM BKN031 OVC040 13/07 A3035 RMK AO1 57014
Pressure 30.35 in
Visibility 10.0 miles
Clouds Mostly Cloudy 3100 ft
Overcast 4000 ft
Dew Point 45 °F
Humidity 67%
Rainfall 0.00 in
Snow Depth Not available.
6:56 AM 10:48 PM
Waning Gibbous, 82% visible
METAR PADK 232056Z AUTO 25013KT 10SM BKN031 OVC040 13/07 A3035 RMK AO1 57014

10-Day Weather Forecast

Almanac

Astronomy

Jul. 23, 2016 Rise Set
Actual Time
Civil Twilight
Nautical Twilight
Astronomical Twilight
Moon
Length of Visible Light
Length of Day
Tomorrow will be .
, % of the Moon is Illuminated

Today's Extremes

State Highs State Lows

Community

WunderPhotos

Upload Photos

1,926,927 photos uploaded!

WunderBlog® & News

Nearby

Air Quality

  Air Quality AQ Index Pollutant
Not available.

Snow Depth

Station Depth Elevation

Earthquake Activity

City Distance Mag. Time & Date
Minimum magnitude displayed is 2.5.

Coastal Water Temperatures

Place Temperature

Stations

Nearby Weather Stations

Station Location Temp. Windchill Dew Point Humidity Wind Precip. Elev Updated Type
                   

Watches & Warnings

There are currently no watches in effect.